createdAt,value
2022-10-16T00:00:35.469Z,9.000000
2022-10-16T00:05:18.283Z,6.333333
2022-10-16T00:10:22.601Z,5.000000
2022-10-16T00:15:23.952Z,7.857143
2022-10-16T00:20:27.225Z,9.000000
2022-10-16T00:25:31.913Z,9.666667
2022-10-16T00:30:33.687Z,10.000000
2022-10-16T00:35:16.359Z,7.333333
2022-10-16T00:40:19.633Z,6.000000
2022-10-16T00:45:22.570Z,7.428571
2022-10-16T00:50:25.599Z,8.000000
2022-10-16T00:55:29.317Z,6.666667
2022-10-16T01:00:30.528Z,6.000000
2022-10-16T01:05:33.486Z,8.666667
2022-10-16T01:10:16.957Z,10.000000
2022-10-16T01:15:19.704Z,8.000000
2022-10-16T01:20:22.724Z,7.000000
2022-10-16T01:25:26.500Z,17.000000
2022-10-16T01:30:28.341Z,22.000000
2022-10-16T01:35:30.790Z,15.333333
2022-10-16T01:40:34.382Z,12.000000
2022-10-16T01:45:36.230Z,12.000000
2022-10-16T01:50:19.662Z,12.000000
2022-10-16T01:55:21.508Z,9.800000
2022-10-16T02:00:25.561Z,9.000000
2022-10-16T02:05:28.457Z,9.000000
2022-10-16T02:10:33.045Z,9.000000
2022-10-16T02:15:34.473Z,20.333333
2022-10-16T02:20:17.434Z,26.000000
2022-10-16T02:25:21.440Z,16.666667
2022-10-16T02:30:23.047Z,12.000000
2022-10-16T02:35:26.315Z,14.666667
2022-10-16T02:40:31.442Z,16.000000
2022-10-16T02:45:31.885Z,13.333333
2022-10-16T02:50:34.483Z,12.000000
2022-10-16T02:55:16.652Z,13.333333
2022-10-16T03:00:19.224Z,14.000000
2022-10-16T03:05:27.407Z,12.533333
2022-10-16T03:10:24.872Z,12.000000
2022-10-16T03:15:26.553Z,12.000000
2022-10-16T03:20:29.307Z,12.000000
2022-10-16T03:25:32.532Z,12.666667
2022-10-16T03:30:34.302Z,13.000000
2022-10-16T03:35:17.663Z,14.333333
2022-10-16T03:40:20.082Z,15.000000
2022-10-16T03:45:22.590Z,12.142857
2022-10-16T03:50:26.141Z,11.000000
2022-10-16T03:55:27.640Z,10.333333
2022-10-16T04:00:30.708Z,10.000000
2022-10-16T04:05:34.368Z,11.333333
2022-10-16T04:10:16.305Z,12.000000
2022-10-16T04:15:19.270Z,11.333333
2022-10-16T04:20:23.905Z,11.000000
2022-10-16T04:25:24.886Z,16.714286
2022-10-16T04:30:27.834Z,19.000000
2022-10-16T04:35:30.255Z,12.333333
2022-10-16T04:40:34.941Z,9.000000
2022-10-16T04:45:17.297Z,8.333333
2022-10-16T04:50:19.318Z,8.000000
2022-10-16T04:55:22.467Z,8.000000
2022-10-16T05:00:24.824Z,8.000000
2022-10-16T05:05:27.209Z,12.666667
2022-10-16T05:10:30.878Z,15.000000
2022-10-16T05:15:33.268Z,12.333333
2022-10-16T05:20:37.342Z,11.000000
2022-10-16T05:25:17.986Z,8.333333
2022-10-16T05:30:20.770Z,7.000000
2022-10-16T05:35:23.609Z,10.571429
2022-10-16T05:40:27.388Z,12.000000
2022-10-16T05:45:30.207Z,9.333333
2022-10-16T05:50:33.771Z,8.000000
2022-10-16T05:55:36.298Z,8.000000
2022-10-16T06:00:17.343Z,8.000000
2022-10-16T06:05:21.547Z,8.666667
2022-10-16T06:10:22.939Z,9.000000
2022-10-16T06:15:26.527Z,7.666667
2022-10-16T06:20:30.551Z,7.000000
2022-10-16T06:25:33.460Z,9.000000
2022-10-16T06:30:35.949Z,10.000000
2022-10-16T06:35:18.199Z,8.666667
2022-10-16T06:40:21.830Z,8.000000
2022-10-16T06:45:24.390Z,8.666667
2022-10-16T06:50:27.393Z,9.000000
2022-10-16T06:55:30.457Z,7.666667
2022-10-16T07:00:32.804Z,7.000000
2022-10-16T07:05:35.682Z,7.000000
2022-10-16T07:10:19.018Z,7.000000
2022-10-16T07:15:22.076Z,11.400000
2022-10-16T07:20:25.058Z,13.000000
2022-10-16T07:25:26.759Z,8.333333
2022-10-16T07:30:29.176Z,6.000000
2022-10-16T07:35:31.646Z,10.666667
2022-10-16T07:40:33.759Z,13.000000
2022-10-16T07:45:16.060Z,17.000000
2022-10-16T07:50:19.486Z,19.000000
2022-10-16T07:55:22.030Z,14.600000
2022-10-16T08:00:23.487Z,13.000000
2022-10-16T08:05:27.841Z,9.666667
2022-10-16T08:10:29.198Z,8.000000
2022-10-16T08:15:31.526Z,9.333333
2022-10-16T08:20:35.010Z,10.000000
2022-10-16T08:25:17.168Z,9.333333
2022-10-16T08:30:21.150Z,9.000000
2022-10-16T08:35:23.668Z,12.571429
2022-10-16T08:40:26.366Z,14.000000
2022-10-16T08:45:29.118Z,8.666667
2022-10-16T08:50:30.839Z,6.000000
2022-10-16T08:55:34.625Z,8.000000
2022-10-16T09:00:16.483Z,9.000000
2022-10-16T09:05:19.331Z,7.000000
2022-10-16T09:10:22.186Z,6.000000
2022-10-16T09:15:24.257Z,8.142857
2022-10-16T09:20:26.817Z,9.000000
2022-10-16T09:25:30.889Z,8.333333
2022-10-16T09:30:33.846Z,8.000000
2022-10-16T09:35:16.187Z,9.333333
2022-10-16T09:40:19.115Z,10.000000
2022-10-16T09:45:21.103Z,7.800000
2022-10-16T09:50:23.677Z,7.000000
2022-10-16T09:55:26.294Z,9.000000
2022-10-16T10:00:30.093Z,10.000000
2022-10-16T10:05:31.899Z,9.333333
2022-10-16T10:10:34.892Z,9.000000
2022-10-16T10:15:18.466Z,7.000000
2022-10-16T10:20:20.112Z,6.000000
2022-10-16T10:25:24.610Z,8.857143
2022-10-16T10:30:26.054Z,10.000000
2022-10-16T10:35:28.388Z,7.333333
2022-10-16T10:40:31.156Z,6.000000
2022-10-16T10:45:33.759Z,6.666667
2022-10-16T10:50:17.441Z,7.000000
2022-10-16T10:55:19.299Z,6.375000
2022-10-16T11:00:21.857Z,6.000000
2022-10-16T11:05:24.015Z,6.000000
2022-10-16T11:10:26.419Z,6.000000
2022-10-16T11:15:31.282Z,6.666667
2022-10-16T11:20:33.354Z,7.000000
2022-10-16T11:25:34.894Z,9.000000
2022-10-16T11:30:17.772Z,10.000000
2022-10-16T11:35:19.219Z,6.666667
2022-10-16T11:40:22.245Z,5.000000
2022-10-16T11:45:25.630Z,5.000000
2022-10-16T11:50:29.270Z,5.000000
2022-10-16T11:55:29.861Z,5.000000
2022-10-16T12:00:32.230Z,5.000000
2022-10-16T12:05:36.353Z,3.666667
2022-10-16T12:10:18.129Z,3.000000
2022-10-16T12:15:25.990Z,6.666667
2022-10-16T12:20:25.125Z,8.000000
2022-10-16T12:25:27.205Z,9.333333
2022-10-16T12:30:33.633Z,10.000000
2022-10-16T12:35:32.690Z,7.333333
2022-10-16T12:40:36.369Z,6.000000
2022-10-16T12:45:18.125Z,6.666667
2022-10-16T12:50:21.728Z,7.000000
2022-10-16T12:55:24.337Z,9.000000
2022-10-16T13:00:27.546Z,10.000000
2022-10-16T13:05:31.327Z,6.666667
2022-10-16T13:10:32.948Z,5.000000
2022-10-16T13:15:35.594Z,7.000000
2022-10-16T13:20:17.672Z,8.000000
2022-10-16T13:25:21.520Z,6.533333
2022-10-16T13:30:28.164Z,6.000000
2022-10-16T13:35:27.781Z,5.333333
2022-10-16T13:40:29.086Z,5.000000
2022-10-16T13:45:31.766Z,6.333333
2022-10-16T13:50:34.232Z,7.000000
2022-10-16T13:55:16.942Z,5.666667
2022-10-16T14:00:20.803Z,5.000000
2022-10-16T14:05:22.333Z,5.714286
2022-10-16T14:10:25.179Z,6.000000
2022-10-16T14:15:28.562Z,6.000000
2022-10-16T14:20:31.944Z,6.000000
2022-10-16T14:25:35.768Z,6.000000
2022-10-16T14:30:18.453Z,6.000000
2022-10-16T14:35:21.371Z,7.428571
2022-10-16T14:40:24.116Z,8.000000
2022-10-16T14:45:27.630Z,6.000000
2022-10-16T14:50:29.485Z,5.000000
2022-10-16T14:55:32.557Z,5.000000
2022-10-16T15:00:36.307Z,5.000000
2022-10-16T15:05:19.142Z,5.000000
2022-10-16T15:10:21.972Z,5.000000
2022-10-16T15:15:25.346Z,5.000000
2022-10-16T15:20:26.732Z,5.000000
2022-10-16T15:25:29.590Z,8.333333
2022-10-16T15:30:34.469Z,10.000000
2022-10-16T15:35:35.673Z,6.666667
2022-10-16T15:40:18.056Z,5.000000
2022-10-16T15:45:21.298Z,5.733333
2022-10-16T15:50:23.934Z,6.000000
2022-10-16T15:55:26.874Z,7.333333
2022-10-16T16:00:29.190Z,8.000000
2022-10-16T16:05:31.964Z,7.333333
2022-10-16T16:10:34.498Z,7.000000
2022-10-16T16:15:16.763Z,5.000000
2022-10-16T16:20:20.221Z,4.000000
2022-10-16T16:25:22.515Z,11.857143
2022-10-16T16:30:28.343Z,15.000000
2022-10-16T16:35:28.937Z,9.666667
2022-10-16T16:40:32.670Z,7.000000
2022-10-16T16:45:34.187Z,7.666667
2022-10-16T16:50:16.684Z,8.000000
2022-10-16T16:55:21.043Z,6.000000
2022-10-16T17:00:23.336Z,5.000000
2022-10-16T17:05:25.896Z,5.000000
2022-10-16T17:10:28.566Z,5.000000
2022-10-16T17:15:31.837Z,7.000000
2022-10-16T17:20:35.003Z,8.000000
2022-10-16T17:25:17.694Z,5.333333
2022-10-16T17:30:21.795Z,4.000000
2022-10-16T17:35:23.981Z,4.714286
2022-10-16T17:40:27.047Z,5.000000
2022-10-16T17:45:29.746Z,7.000000
2022-10-16T17:50:31.882Z,8.000000
2022-10-16T17:55:34.384Z,8.000000
2022-10-16T18:00:19.165Z,8.000000
2022-10-16T18:05:20.618Z,6.666667
2022-10-16T18:10:24.937Z,6.000000
2022-10-16T18:15:28.310Z,8.000000
2022-10-16T18:20:31.133Z,9.000000
2022-10-16T18:25:32.953Z,5.666667
2022-10-16T18:30:36.118Z,4.000000
2022-10-16T18:35:18.976Z,6.666667
2022-10-16T18:40:22.387Z,8.000000
2022-10-16T18:45:26.771Z,8.000000
2022-10-16T18:50:27.730Z,8.000000
2022-10-16T18:55:32.086Z,12.000000
2022-10-16T19:00:34.106Z,14.000000
2022-10-16T19:05:17.119Z,13.333333
2022-10-16T19:10:19.992Z,13.000000
2022-10-16T19:15:22.800Z,10.142857
2022-10-16T19:20:25.983Z,9.000000
2022-10-16T19:25:29.384Z,6.333333
2022-10-16T19:30:31.725Z,5.000000
2022-10-16T19:35:34.292Z,5.000000
2022-10-16T19:40:17.893Z,5.000000
2022-10-16T19:45:20.350Z,5.000000
2022-10-16T19:50:24.615Z,5.000000
2022-10-16T19:55:25.092Z,5.000000
2022-10-16T20:00:28.254Z,5.000000
2022-10-16T20:05:31.449Z,11.000000
2022-10-16T20:10:35.309Z,14.000000
2022-10-16T20:15:16.850Z,9.333333
2022-10-16T20:20:20.469Z,7.000000
2022-10-16T20:25:25.003Z,5.571429
2022-10-16T20:30:26.325Z,5.000000
2022-10-16T20:35:30.333Z,6.333333
2022-10-16T20:40:33.478Z,7.000000
2022-10-16T20:45:35.464Z,7.000000
2022-10-16T20:50:18.880Z,7.000000
2022-10-16T20:55:21.724Z,8.466667
2022-10-16T21:00:24.650Z,9.000000
2022-10-16T21:05:27.047Z,7.000000
2022-10-16T21:10:31.055Z,6.000000
2022-10-16T21:15:32.859Z,4.666667
2022-10-16T21:20:16.905Z,4.000000
2022-10-16T21:25:19.208Z,7.333333
2022-10-16T21:30:22.400Z,9.000000
2022-10-16T21:35:25.151Z,8.333333
2022-10-16T21:40:28.823Z,8.000000
2022-10-16T21:45:30.472Z,7.333333
2022-10-16T21:50:33.161Z,7.000000
2022-10-16T21:55:35.960Z,6.333333
2022-10-16T22:00:19.356Z,6.000000
2022-10-16T22:05:22.792Z,8.142857
2022-10-16T22:10:27.482Z,9.000000
2022-10-16T22:15:28.951Z,9.000000
2022-10-16T22:20:33.950Z,9.000000
2022-10-16T22:25:36.948Z,9.000000
2022-10-16T22:30:17.785Z,9.000000
2022-10-16T22:35:21.793Z,9.733333
2022-10-16T22:40:23.368Z,10.000000
2022-10-16T22:45:26.582Z,9.333333
2022-10-16T22:50:31.550Z,9.000000
2022-10-16T22:55:34.192Z,7.666667
2022-10-16T23:00:38.170Z,7.000000
2022-10-16T23:05:18.421Z,9.000000
2022-10-16T23:10:22.368Z,10.000000
2022-10-16T23:15:26.146Z,9.285714
2022-10-16T23:20:28.581Z,9.000000
2022-10-16T23:25:31.253Z,7.000000
2022-10-16T23:30:33.949Z,6.000000
2022-10-16T23:35:16.422Z,20.666667
2022-10-16T23:40:19.525Z,28.000000
2022-10-16T23:45:22.034Z,19.200000
2022-10-16T23:50:25.097Z,16.000000
2022-10-16T23:55:27.685Z,10.666667
